Automatic weather station data:  TUESDAY 04.10.2022

Station: Time: Temperature: Pressure: Humidity: Wind direction: Wind speed:
 Stara planina  21:45  2.3 °C  844.8 hPa  100 %  282 °  3.4 m/s
 Košutnjak  21:50  9.2 °C  1001.8 hPa  94 %  153 °  0.9 m/s
 Pančevo  21:46  10.1 °C  1014.0 hPa  100 %  287 °  0.3 m/s
 Kukavica  21:45  3.6 °C  863.5 hPa  100 %  349 °  3.1 m/s
 Ivanjica  21:45  9.5 °C  972.1 hPa  88 %  -  -
 Čačak  21:45  11.1 °C  997.0 hPa  100 %  280 °  0.2 m/s
 Slatina-Čačak  21:05  10.1 °C  -  98 %  259 °  0.8 m/s
 Tamnava  21:45  9.1 °C  1014.7 hPa  100 %  139 °  0.3 m/s
 Baroševac  21:45  9.6 °C  1003.9 hPa  93 %  333 °  0.6 m/s
 Gazivode  21:45  8.6 °C  943.4 hPa  86 %  342 °  0.3 m/s
 Leposavić  21:45  8.8 °C  971.3 hPa  88 %  233 °  0.5 m/s
 Kosovska Mitrovica  21:45  8.8 °C  959.5 hPa  95 %  37 °  0.2 m/s
 Zvečan  21:45  7.8 °C  965.3 hPa  100 %  193 °  0.5 m/s
 Pirot  21:45  9.4 °C  979.1 hPa  94 %  295 °  0.0 m/s
 Požarevac  21:45  11.1 °C  1015.7 hPa  100 %  174 °  0.7 m/s
 Laznica-Žagubica  21:45  7.8 °C  937.5 hPa  100 %  258 °  1.5 m/s
 Kladovo-Karataš  21:45  13.6 °C  1015.5 hPa  63 %  295 °  5.8 m/s
 Bajina Bašta  21:45  8.4 °C  997.0 hPa  100 %  0 °  0.0 m/s
 Karajukića Bunari  21:45  1.7 °C  893.0 hPa  100 %  244 °  0.5 m/s
 Krupanj  21:45  10.0 °C  992.0 hPa  100 %  213 °  0.5 m/s
 Prijepolje  21:45  6.2 °C  972.0 hPa  100 %  0 °  0.0 m/s
 Click on station name for more details
Srpski Ћирилица   Srpski Latinica   English English
Директор РХМЗ